Time;durP1;ratioP1;P1;durP2;ratioP2;P2;SDS_P1;SDS_P2;PMS_P1;PMS_P2;Temp;Humidity;BMP_temperature;BMP_pressure;BME280_temperature;BME280_humidity;BME280_pressure;Samples;Min_cycle;Max_cycle;Signal;HPM_P1;HPM_P2
2022/07/13 00:00:54;;;;;;;4.78;0.75;;;23.00;56.70;;;;;;4948327;28;20222;-78
2022/07/13 00:03:22;;;;;;;2.63;0.90;;;22.90;56.70;;;;;;4950049;28;20570;-77
2022/07/13 00:05:51;;;;;;;0.73;0.70;;;23.00;56.90;;;;;;4952196;28;20226;-77
2022/07/13 00:08:19;;;;;;;2.67;0.98;;;22.90;56.80;;;;;;4950508;28;20202;-78
2022/07/13 00:10:49;;;;;;;2.50;0.90;;;22.90;57.00;;;;;;4951066;28;20677;-76
2022/07/13 00:13:17;;;;;;;1.30;0.82;;;22.90;57.10;;;;;;4945401;28;20617;-77
2022/07/13 00:15:46;;;;;;;3.13;1.15;;;22.80;57.10;;;;;;4953327;28;20210;-77
2022/07/13 00:18:14;;;;;;;2.25;0.98;;;22.80;57.20;;;;;;4951656;28;20628;-77
2022/07/13 00:20:44;;;;;;;6.07;1.00;;;22.80;57.30;;;;;;4948920;28;20279;-78
2022/07/13 00:23:12;;;;;;;1.42;0.80;;;22.80;57.30;;;;;;4948091;28;20211;-78
2022/07/13 00:25:40;;;;;;;2.67;0.85;;;22.80;57.50;;;;;;4940578;28;20203;-78
2022/07/13 00:28:10;;;;;;;2.22;0.60;;;22.70;57.80;;;;;;4947299;28;20810;-79
2022/07/13 00:30:39;;;;;;;4.30;1.00;;;22.70;58.00;;;;;;4944775;28;20205;-78
2022/07/13 00:33:07;;;;;;;1.65;0.75;;;22.70;58.10;;;;;;4945996;28;20213;-78
2022/07/13 00:35:36;;;;;;;1.85;0.70;;;22.60;58.00;;;;;;4950390;28;20203;-77
2022/07/13 00:38:04;;;;;;;1.00;0.80;;;22.60;58.20;;;;;;4952056;28;20221;-77
2022/07/13 00:40:33;;;;;;;2.72;0.65;;;22.50;58.00;;;;;;4950811;28;20233;-77
2022/07/13 00:43:01;;;;;;;3.72;0.90;;;22.50;58.00;;;;;;4945906;28;20218;-78
2022/07/13 00:45:31;;;;;;;1.73;0.80;;;22.50;58.00;;;;;;4954348;28;20210;-77
2022/07/13 00:48:00;;;;;;;1.17;0.60;;;22.50;58.00;;;;;;4955368;28;20902;-79
2022/07/13 00:50:28;;;;;;;1.30;0.70;;;22.40;58.00;;;;;;4951690;28;20204;-78
2022/07/13 00:52:57;;;;;;;1.15;0.63;;;22.40;58.10;;;;;;4949315;28;20209;-78
2022/07/13 00:55:26;;;;;;;4.65;0.80;;;22.30;58.00;;;;;;4947795;28;20795;-78
2022/07/13 00:57:55;;;;;;;1.48;0.70;;;22.30;58.00;;;;;;4951073;28;20205;-79
2022/07/13 01:00:24;;;;;;;0.90;0.60;;;22.20;58.00;;;;;;4950684;28;20348;-78
2022/07/13 01:02:53;;;;;;;0.70;0.50;;;22.20;58.10;;;;;;4940875;28;20209;-78
2022/07/13 01:05:23;;;;;;;1.03;0.60;;;22.10;58.10;;;;;;4948962;28;20227;-78
2022/07/13 01:07:51;;;;;;;3.80;0.90;;;22.10;58.10;;;;;;4942586;28;20207;-79
2022/07/13 01:10:20;;;;;;;1.48;0.68;;;22.00;58.10;;;;;;4942390;28;20194;-78
2022/07/13 01:12:48;;;;;;;2.75;0.77;;;22.10;58.40;;;;;;4951652;28;20202;-79
2022/07/13 01:15:17;;;;;;;0.50;0.50;;;22.00;58.40;;;;;;4945647;28;20203;-80
2022/07/13 01:17:47;;;;;;;1.63;0.70;;;21.90;58.50;;;;;;4936179;28;20217;-79
2022/07/13 01:20:18;;;;;;;1.17;0.77;;;21.90;58.70;;;;;;4941653;28;20199;-80
2022/07/13 01:22:48;;;;;;;4.33;0.77;;;21.80;59.00;;;;;;4943725;28;20191;-79
2022/07/13 01:25:20;;;;;;;1.53;0.60;;;21.80;59.10;;;;;;4944124;28;20198;-78
2022/07/13 01:27:49;;;;;;;1.13;0.60;;;21.70;59.20;;;;;;4939525;28;20351;-77
2022/07/13 01:30:17;;;;;;;1.70;0.80;;;21.70;59.40;;;;;;4944043;28;20206;-78
2022/07/13 01:32:48;;;;;;;3.43;0.63;;;21.60;59.70;;;;;;4948217;28;20195;-79
2022/07/13 01:35:17;;;;;;;1.10;0.80;;;21.50;59.70;;;;;;4945351;28;20776;-79
2022/07/13 01:37:46;;;;;;;1.70;0.80;;;21.50;59.80;;;;;;4942195;28;20202;-80
2022/07/13 01:40:15;;;;;;;2.13;0.87;;;21.40;59.80;;;;;;4944551;28;20297;-79
2022/07/13 01:42:46;;;;;;;1.60;0.73;;;21.40;59.90;;;;;;4944952;28;20215;-79
2022/07/13 01:45:16;;;;;;;2.03;0.90;;;21.30;59.80;;;;;;4943037;28;20442;-79
2022/07/13 01:47:46;;;;;;;1.87;0.70;;;21.30;59.90;;;;;;4956553;28;20213;-79
2022/07/13 01:50:17;;;;;;;2.10;0.90;;;21.20;60.00;;;;;;4951268;28;20664;-78
2022/07/13 01:52:46;;;;;;;2.00;0.70;;;21.30;60.00;;;;;;4948309;28;20199;-80
2022/07/13 01:55:15;;;;;;;1.93;0.73;;;21.20;60.10;;;;;;4958415;28;20199;-80
2022/07/13 01:57:45;;;;;;;3.23;0.97;;;21.20;60.00;;;;;;4946778;28;20201;-80
2022/07/13 02:00:16;;;;;;;2.27;0.83;;;21.20;60.10;;;;;;4942264;28;20199;-79
2022/07/13 02:02:44;;;;;;;2.27;1.10;;;21.10;60.00;;;;;;4941989;28;20207;-78
2022/07/13 02:05:13;;;;;;;1.43;0.70;;;21.10;60.10;;;;;;4943795;28;20222;-77
2022/07/13 02:07:42;;;;;;;1.33;0.90;;;21.10;60.10;;;;;;4946252;28;20205;-78
2022/07/13 02:10:12;;;;;;;2.20;1.10;;;21.00;60.10;;;;;;4951413;28;20206;-79
2022/07/13 02:12:41;;;;;;;1.97;0.80;;;21.00;60.20;;;;;;4945677;28;20209;-79
2022/07/13 02:15:12;;;;;;;2.20;1.00;;;21.00;60.20;;;;;;4946690;28;20206;-80
2022/07/13 02:17:41;;;;;;;4.90;1.03;;;21.00;60.20;;;;;;4945382;28;20199;-80
2022/07/13 02:20:10;;;;;;;3.17;0.80;;;21.00;60.20;;;;;;4941628;28;20199;-79
2022/07/13 02:22:42;;;;;;;3.97;0.90;;;20.90;60.50;;;;;;4948886;28;20227;-80
2022/07/13 02:25:11;;;;;;;2.50;0.80;;;20.90;60.50;;;;;;4943492;28;20210;-80
2022/07/13 02:27:40;;;;;;;2.53;1.10;;;20.80;60.60;;;;;;4936613;28;20205;-79
2022/07/13 02:30:11;;;;;;;2.07;1.10;;;20.80;60.80;;;;;;4950395;28;20245;-79
2022/07/13 02:32:40;;;;;;;2.40;1.20;;;20.80;60.70;;;;;;4938940;28;20610;-78
2022/07/13 02:35:09;;;;;;;2.47;1.00;;;20.80;60.80;;;;;;4944693;28;20329;-78
2022/07/13 02:37:38;;;;;;;2.17;1.00;;;20.80;60.90;;;;;;4936064;28;20874;-78
2022/07/13 02:40:08;;;;;;;3.13;1.30;;;20.70;60.80;;;;;;4946698;28;20206;-79
2022/07/13 02:42:37;;;;;;;2.60;1.17;;;20.70;60.80;;;;;;4946020;28;20289;-79
2022/07/13 02:45:06;;;;;;;3.07;0.97;;;20.70;60.90;;;;;;4941174;28;20199;-78
2022/07/13 02:47:37;;;;;;;2.20;0.93;;;20.70;61.20;;;;;;4948486;28;20198;-79
2022/07/13 02:50:06;;;;;;;2.60;1.03;;;20.60;61.40;;;;;;4949749;28;20202;-78
2022/07/13 02:52:35;;;;;;;2.27;1.10;;;20.60;61.40;;;;;;4952385;28;20200;-78
2022/07/13 02:55:03;;;;;;;1.90;1.20;;;20.60;61.40;;;;;;4953569;28;20205;-78
2022/07/13 02:57:32;;;;;;;2.33;1.10;;;20.60;61.40;;;;;;4952978;28;20201;-79
2022/07/13 03:00:00;;;;;;;3.93;1.20;;;20.50;61.40;;;;;;4944351;28;20569;-79
2022/07/13 03:02:29;;;;;;;2.90;1.20;;;20.50;61.50;;;;;;4944857;28;20226;-79
2022/07/13 03:04:58;;;;;;;6.60;1.60;;;20.50;61.80;;;;;;4954209;28;20256;-79
2022/07/13 03:07:28;;;;;;;1.60;1.10;;;20.50;61.80;;;;;;4943454;28;20281;-79
2022/07/13 03:09:57;;;;;;;3.23;1.00;;;20.50;61.90;;;;;;4953350;28;21353;-79
2022/07/13 03:12:25;;;;;;;4.60;1.10;;;20.40;62.10;;;;;;4952822;28;20194;-78
2022/07/13 03:14:54;;;;;;;2.40;1.33;;;20.40;62.50;;;;;;4943867;28;20831;-79
2022/07/13 03:17:22;;;;;;;3.50;1.10;;;20.40;62.50;;;;;;4948740;28;20191;-79
2022/07/13 03:19:50;;;;;;;4.63;1.23;;;20.30;62.50;;;;;;4952551;28;20199;-79
2022/07/13 03:22:20;;;;;;;3.53;1.30;;;20.30;62.70;;;;;;4947525;28;20229;-78
2022/07/13 03:24:49;;;;;;;2.03;1.07;;;20.30;62.70;;;;;;4945070;28;20203;-79
2022/07/13 03:27:18;;;;;;;3.03;1.13;;;20.30;63.00;;;;;;4942981;28;20203;-78
2022/07/13 03:29:46;;;;;;;4.53;1.30;;;20.30;62.90;;;;;;4942961;28;20250;-78
2022/07/13 03:32:15;;;;;;;1.80;1.27;;;20.30;62.90;;;;;;4949795;28;20201;-78
2022/07/13 03:34:43;;;;;;;2.40;1.23;;;20.30;63.10;;;;;;4952427;28;20210;-78
2022/07/13 03:37:11;;;;;;;2.23;1.10;;;20.30;63.10;;;;;;4953416;28;20207;-79
2022/07/13 03:39:41;;;;;;;5.63;1.43;;;20.30;63.10;;;;;;4956066;28;20198;-80
2022/07/13 03:42:10;;;;;;;2.43;1.10;;;20.30;63.20;;;;;;4953747;28;20530;-79
2022/07/13 03:44:38;;;;;;;4.30;1.50;;;20.30;63.50;;;;;;4951538;28;20195;-78
2022/07/13 03:47:06;;;;;;;2.60;1.40;;;20.20;63.60;;;;;;4951343;28;20203;-79
2022/07/13 03:49:35;;;;;;;3.67;1.30;;;20.30;63.40;;;;;;4947403;28;20432;-80
2022/07/13 03:52:03;;;;;;;3.93;1.40;;;20.30;63.40;;;;;;4947200;28;20195;-80
2022/07/13 03:54:32;;;;;;;2.37;1.27;;;20.30;63.50;;;;;;4947529;28;20727;-81
2022/07/13 03:57:02;;;;;;;3.10;1.50;;;20.40;63.60;;;;;;4952641;28;20214;-78
2022/07/13 03:59:30;;;;;;;4.40;1.40;;;20.40;63.50;;;;;;4956928;28;20202;-80
2022/07/13 04:01:59;;;;;;;2.30;1.10;;;20.40;63.30;;;;;;4948688;28;20202;-79
2022/07/13 04:04:27;;;;;;;2.60;1.60;;;20.40;63.60;;;;;;4948147;28;20237;-79
2022/07/13 04:06:56;;;;;;;1.63;1.20;;;20.50;63.70;;;;;;4952310;28;20201;-79
2022/07/13 04:09:25;;;;;;;3.67;1.50;;;20.50;63.70;;;;;;4947728;28;20229;-78
2022/07/13 04:11:53;;;;;;;2.80;1.40;;;20.40;63.80;;;;;;4949706;28;20573;-79
2022/07/13 04:14:23;;;;;;;5.10;1.30;;;20.40;63.80;;;;;;4952291;28;20206;-79
2022/07/13 04:16:51;;;;;;;4.10;1.23;;;20.50;63.70;;;;;;4947645;28;20210;-78
2022/07/13 04:19:19;;;;;;;4.17;1.50;;;20.50;63.70;;;;;;4951326;28;20203;-79
2022/07/13 04:21:48;;;;;;;3.83;1.60;;;20.50;63.60;;;;;;4946719;28;20198;-79
2022/07/13 04:24:23;;;;;;;3.40;1.40;;;20.50;63.50;;;;;;4957255;28;20221;-79
2022/07/13 04:26:51;;;;;;;3.23;0.90;;;20.60;63.50;;;;;;4947591;28;20208;-79
2022/07/13 04:29:19;;;;;;;5.00;1.30;;;20.60;63.30;;;;;;4949320;28;20724;-79
2022/07/13 04:31:49;;;;;;;4.23;1.10;;;20.70;63.20;;;;;;4942838;28;20195;-79
2022/07/13 04:34:18;;;;;;;2.63;1.20;;;20.80;63.30;;;;;;4946790;28;20209;-79
2022/07/13 04:36:46;;;;;;;4.93;1.40;;;20.80;63.50;;;;;;4946534;28;20210;-80
2022/07/13 04:39:15;;;;;;;6.83;1.40;;;20.80;63.30;;;;;;4942939;28;20213;-79
2022/07/13 04:41:43;;;;;;;3.33;1.40;;;20.80;63.20;;;;;;4944758;28;20201;-80
2022/07/13 04:44:12;;;;;;;5.33;1.20;;;20.80;63.10;;;;;;4945260;28;20218;-80
2022/07/13 04:46:40;;;;;;;5.33;1.67;;;20.80;63.00;;;;;;4943270;28;20210;-79
2022/07/13 04:49:10;;;;;;;4.00;1.70;;;20.90;63.00;;;;;;4943546;28;20268;-79
2022/07/13 04:51:39;;;;;;;3.07;1.30;;;20.90;63.10;;;;;;4947102;28;20202;-79
2022/07/13 04:54:08;;;;;;;4.30;1.40;;;20.90;63.10;;;;;;4945119;28;20202;-79
2022/07/13 04:56:36;;;;;;;4.00;1.40;;;20.90;63.20;;;;;;4944771;28;20591;-81
2022/07/13 04:59:05;;;;;;;3.23;1.10;;;21.00;63.20;;;;;;4940341;28;20199;-79
2022/07/13 05:01:33;;;;;;;3.43;1.50;;;21.00;63.20;;;;;;4947056;28;20203;-78
2022/07/13 05:04:02;;;;;;;3.03;1.47;;;21.10;63.00;;;;;;4948655;28;20245;-79
2022/07/13 05:06:32;;;;;;;2.43;1.20;;;21.10;63.00;;;;;;4942804;28;20226;-82
2022/07/13 05:09:01;;;;;;;3.63;1.40;;;21.20;63.00;;;;;;4943810;28;20195;-79
2022/07/13 05:11:29;;;;;;;6.73;1.20;;;21.20;62.90;;;;;;4942169;28;20202;-81
2022/07/13 05:13:58;;;;;;;5.50;1.10;;;21.20;62.90;;;;;;4947728;28;20202;-80
2022/07/13 05:16:26;;;;;;;5.20;1.33;;;21.30;62.80;;;;;;4946476;28;20197;-81
2022/07/13 05:18:56;;;;;;;4.77;1.10;;;21.30;62.70;;;;;;4941865;28;20777;-76
2022/07/13 05:21:24;;;;;;;2.27;0.80;;;21.40;62.70;;;;;;4938855;28;20206;-78
2022/07/13 05:23:54;;;;;;;5.77;1.00;;;21.40;62.30;;;;;;4940842;28;20219;-78
2022/07/13 05:26:23;;;;;;;2.97;1.03;;;21.50;62.20;;;;;;4936764;28;20191;-78
2022/07/13 05:28:51;;;;;;;3.90;1.10;;;21.60;62.10;;;;;;4943204;28;20218;-76
2022/07/13 05:31:19;;;;;;;3.22;1.35;;;21.60;62.20;;;;;;4949855;28;20738;-78
2022/07/13 05:33:48;;;;;;;5.10;1.10;;;21.70;62.10;;;;;;4945882;28;20221;-79
2022/07/13 05:36:16;;;;;;;2.77;1.00;;;21.80;61.80;;;;;;4946987;28;20195;-77
2022/07/13 05:38:45;;;;;;;6.38;1.40;;;21.80;61.50;;;;;;4929110;28;20437;-77
2022/07/13 05:41:15;;;;;;;10.35;1.63;;;21.90;61.10;;;;;;4934674;28;20205;-78
2022/07/13 05:43:44;;;;;;;2.00;1.00;;;22.00;61.10;;;;;;4941394;28;20206;-78
2022/07/13 05:46:12;;;;;;;7.15;0.98;;;22.10;60.90;;;;;;4942954;28;20202;-78
2022/07/13 05:48:41;;;;;;;2.13;1.05;;;22.10;60.80;;;;;;4944085;28;20202;-78
2022/07/13 05:51:09;;;;;;;1.75;0.80;;;22.20;60.20;;;;;;4944166;28;20202;-77
2022/07/13 05:53:58;;;;;;;1.75;0.88;;;22.30;59.80;;;;;;4943369;28;20202;-79
2022/07/13 05:56:47;;;;;;;2.40;0.88;;;22.40;60.70;;;;;;4944979;28;20245;-77
2022/07/13 05:59:16;;;;;;;2.78;0.82;;;22.40;59.20;;;;;;4937629;28;20206;-77
2022/07/13 06:01:44;;;;;;;1.08;0.70;;;22.50;58.80;;;;;;4943224;28;20665;-78
2022/07/13 06:04:13;;;;;;;6.60;0.98;;;22.60;58.40;;;;;;4940013;28;20230;-77
2022/07/13 06:06:42;;;;;;;0.95;0.82;;;22.70;58.00;;;;;;4938875;28;20202;-78
2022/07/13 06:09:11;;;;;;;7.13;1.10;;;22.70;57.90;;;;;;4944832;28;20288;-77
2022/07/13 06:11:42;;;;;;;3.22;0.80;;;22.80;57.60;;;;;;4937576;28;20204;-76
2022/07/13 06:14:12;;;;;;;1.65;0.70;;;22.90;57.50;;;;;;4942837;28;20211;-78
2022/07/13 06:16:40;;;;;;;2.47;0.93;;;22.90;57.30;;;;;;4942563;28;20225;-78
2022/07/13 06:19:09;;;;;;;4.30;1.00;;;23.00;57.30;;;;;;4942113;29;20244;-77
2022/07/13 06:21:37;;;;;;;4.70;1.00;;;23.10;57.10;;;;;;4941541;28;20545;-78
2022/07/13 06:24:08;;;;;;;7.43;0.90;;;23.20;57.00;;;;;;4941649;28;20214;-79
2022/07/13 06:26:44;;;;;;;7.25;1.20;;;23.20;56.30;;;;;;4941725;28;20686;-79
2022/07/13 06:29:14;;;;;;;7.40;0.80;;;23.30;56.40;;;;;;4940173;28;20230;-80
2022/07/13 06:31:43;;;;;;;5.03;1.83;;;23.40;55.80;;;;;;4946020;28;20213;-78
2022/07/13 06:34:11;;;;;;;5.72;1.05;;;23.40;55.00;;;;;;4944862;28;20696;-80
2022/07/13 06:36:39;;;;;;;2.63;0.80;;;23.50;55.20;;;;;;4949539;29;20710;-78
2022/07/13 06:39:08;;;;;;;5.28;1.10;;;23.50;55.00;;;;;;4941027;28;20214;-79
2022/07/13 06:41:38;;;;;;;2.80;0.90;;;23.60;55.10;;;;;;4942990;28;20202;-77
2022/07/13 06:44:07;;;;;;;2.92;0.73;;;23.70;55.00;;;;;;4946463;28;20935;-77
2022/07/13 06:46:37;;;;;;;4.13;0.82;;;23.70;54.80;;;;;;4946651;29;20659;-78
2022/07/13 06:49:05;;;;;;;3.10;0.75;;;23.80;54.60;;;;;;4946524;28;20199;-78
2022/07/13 06:51:34;;;;;;;6.95;0.60;;;23.90;54.50;;;;;;4947192;29;20214;-80
2022/07/13 06:54:09;;;;;;;2.80;0.75;;;23.90;54.40;;;;;;4940023;28;20198;-79
2022/07/13 06:56:38;;;;;;;3.72;0.70;;;24.00;54.70;;;;;;4946009;29;20210;-80
2022/07/13 06:59:06;;;;;;;3.65;0.73;;;24.10;54.70;;;;;;4943313;28;20222;-79
2022/07/13 07:01:36;;;;;;;2.60;0.98;;;24.10;54.10;;;;;;4945472;29;20305;-79
2022/07/13 07:04:05;;;;;;;1.92;0.85;;;24.20;53.30;;;;;;4944485;28;20230;-78
2022/07/13 07:06:36;;;;;;;3.50;0.90;;;24.30;53.70;;;;;;4945224;29;20195;-78
2022/07/13 07:09:04;;;;;;;4.55;0.80;;;24.30;53.60;;;;;;4945821;28;20199;-81
2022/07/13 07:11:33;;;;;;;1.00;0.63;;;24.30;53.50;;;;;;4946983;28;20241;-79
2022/07/13 07:14:01;;;;;;;1.00;0.70;;;24.40;53.60;;;;;;4948215;28;20202;-79
2022/07/13 07:16:30;;;;;;;2.40;0.63;;;24.50;53.50;;;;;;4949562;29;20202;-78
2022/07/13 07:19:00;;;;;;;8.65;1.38;;;24.60;53.60;;;;;;4951322;28;20198;-82
2022/07/13 07:21:49;;;;;;;2.28;0.70;;;24.60;53.80;;;;;;4944051;29;20206;-80
2022/07/13 07:24:17;;;;;;;2.80;1.08;;;24.70;53.70;;;;;;4948563;28;20304;-80
2022/07/13 07:26:45;;;;;;;1.08;0.70;;;24.80;53.50;;;;;;4952040;29;20229;-79
2022/07/13 07:29:14;;;;;;;6.18;1.20;;;24.80;53.40;;;;;;4949484;28;20846;-80
2022/07/13 07:31:43;;;;;;;1.83;0.73;;;25.00;53.20;;;;;;4950134;29;20202;-81
2022/07/13 07:34:13;;;;;;;0.90;0.60;;;25.00;53.00;;;;;;4948488;28;20206;-78
2022/07/13 07:36:42;;;;;;;1.90;0.98;;;24.90;52.60;;;;;;4950106;29;20206;-79
2022/07/13 07:39:10;;;;;;;4.85;0.80;;;25.00;52.10;;;;;;4945111;28;20206;-78
2022/07/13 07:41:39;;;;;;;2.08;0.90;;;25.00;52.00;;;;;;4950216;28;20205;-78
2022/07/13 07:44:08;;;;;;;3.03;1.10;;;25.00;52.30;;;;;;4950451;28;20873;-79
2022/07/13 07:46:36;;;;;;;5.68;0.90;;;25.10;52.50;;;;;;4951055;29;20290;-78
2022/07/13 07:49:04;;;;;;;3.10;0.70;;;25.20;52.50;;;;;;4949666;28;20210;-80
2022/07/13 07:51:34;;;;;;;0.85;0.70;;;25.20;52.50;;;;;;4952512;28;20229;-78
2022/07/13 07:54:23;;;;;;;5.50;0.90;;;25.30;52.30;;;;;;4950082;29;20227;-80
2022/07/13 07:56:51;;;;;;;5.60;0.80;;;25.30;52.10;;;;;;4955107;29;20677;-77
2022/07/13 07:59:20;;;;;;;2.03;0.60;;;25.40;52.10;;;;;;4952928;28;20211;-79
2022/07/13 08:01:48;;;;;;;2.50;0.70;;;25.40;52.10;;;;;;4950218;28;20199;-80
2022/07/13 08:04:17;;;;;;;3.10;0.60;;;25.50;52.10;;;;;;4945754;29;20234;-77
2022/07/13 08:06:47;;;;;;;1.02;0.50;;;25.50;51.10;;;;;;4945857;28;20712;-80
2022/07/13 08:09:16;;;;;;;2.72;0.52;;;25.60;51.00;;;;;;4945047;28;20214;-79
2022/07/13 08:11:44;;;;;;;1.00;0.60;;;25.60;50.60;;;;;;4940837;28;20277;-78
2022/07/13 08:14:13;;;;;;;1.08;0.50;;;25.70;50.50;;;;;;4952634;28;20228;-77
2022/07/13 08:16:41;;;;;;;1.33;1.00;;;25.70;49.80;;;;;;4949340;28;20289;-79
2022/07/13 08:19:10;;;;;;;1.13;0.50;;;25.80;49.60;;;;;;4945694;28;20284;-77
2022/07/13 08:22:00;;;;;;;0.55;0.47;;;25.80;49.80;;;;;;4943302;28;20281;-78
2022/07/13 08:24:28;;;;;;;0.52;0.40;;;26.00;50.00;;;;;;4937754;28;20210;-80
2022/07/13 08:27:01;;;;;;;2.53;0.50;;;25.90;48.40;;;;;;4933325;28;20588;-80
2022/07/13 08:29:34;;;;;;;2.45;0.60;;;26.00;48.20;;;;;;4908519;28;20190;-81
2022/07/13 08:32:03;;;;;;;1.23;0.52;;;26.00;48.20;;;;;;4940441;28;20203;-77
2022/07/13 08:40:13;;;;;;;1.48;0.50;;;26.20;47.20;;;;;;4947180;28;20278;-79
2022/07/13 08:42:45;;;;;;;0.90;0.47;;;26.20;46.60;;;;;;4957386;28;20198;-79
2022/07/13 08:45:16;;;;;;;6.50;0.60;;;26.30;47.00;;;;;;4942142;28;20567;-78
2022/07/13 08:47:45;;;;;;;0.90;0.47;;;26.40;46.70;;;;;;4949719;29;20232;-79
2022/07/13 08:50:21;;;;;;;1.70;0.50;;;26.40;46.30;;;;;;4944509;28;20190;-77
2022/07/13 08:52:54;;;;;;;3.15;0.60;;;26.50;46.00;;;;;;4943377;28;20277;-80
2022/07/13 08:55:38;;;;;;;3.78;0.40;;;26.50;45.50;;;;;;4939169;28;20182;-80
2022/07/13 08:58:12;;;;;;;0.95;0.40;;;26.60;46.00;;;;;;4942840;28;20207;-78
2022/07/13 09:00:42;;;;;;;0.73;0.40;;;26.60;45.50;;;;;;4933651;28;20210;-79
2022/07/13 09:03:11;;;;;;;0.45;0.40;;;26.70;45.50;;;;;;4944635;28;20658;-80
2022/07/13 09:05:40;;;;;;;3.28;0.52;;;26.70;44.90;;;;;;4940556;28;20728;-77
2022/07/13 09:08:14;;;;;;;2.35;0.50;;;26.80;45.30;;;;;;4943543;28;20202;-79
2022/07/13 09:10:54;;;;;;;1.35;0.32;;;26.90;45.00;;;;;;4944958;28;20195;-83
2022/07/13 09:13:41;;;;;;;2.25;0.80;;;26.90;45.00;;;;;;4942043;28;20213;-78
2022/07/13 09:16:17;;;;;;;1.15;0.40;;;27.00;44.90;;;;;;4938748;28;20652;-78
2022/07/13 09:18:56;;;;;;;1.73;0.60;;;27.10;45.00;;;;;;4943453;28;20202;-82
2022/07/13 09:21:31;;;;;;;6.32;0.40;;;27.20;44.20;;;;;;4953345;28;20276;-81
2022/07/13 09:24:04;;;;;;;3.50;0.40;;;27.20;44.10;;;;;;4937289;28;22121;-78
2022/07/13 09:26:40;;;;;;;2.00;0.30;;;27.30;43.50;;;;;;4941845;28;20213;-82
2022/07/13 09:29:11;;;;;;;0.85;0.50;;;27.30;43.70;;;;;;4944463;28;20228;-76
2022/07/13 09:31:52;;;;;;;1.30;0.57;;;27.30;43.10;;;;;;4933927;28;20202;-78
2022/07/13 09:34:22;;;;;;;0.60;0.60;;;27.50;43.50;;;;;;4945850;28;20351;-76
2022/07/13 09:37:10;;;;;;;1.30;0.30;;;27.50;43.30;;;;;;4943866;28;20392;-76
2022/07/13 09:39:56;;;;;;;1.55;0.52;;;27.50;42.90;;;;;;4943818;28;20199;-79
2022/07/13 09:42:31;;;;;;;2.00;0.40;;;27.60;42.80;;;;;;4934661;28;20202;-76
2022/07/13 09:47:53;;;;;;;3.10;0.50;;;27.60;41.50;;;;;;4943872;28;20201;-78
2022/07/13 09:50:22;;;;;;;0.85;0.60;;;27.60;41.50;;;;;;4945930;29;20209;-80
2022/07/13 09:52:52;;;;;;;0.38;0.35;;;27.60;41.60;;;;;;4945560;28;20198;-80
2022/07/13 09:55:24;;;;;;;0.52;0.47;;;27.70;41.80;;;;;;4943389;28;20210;-79
2022/07/13 09:57:56;;;;;;;0.30;0.30;;;27.70;41.90;;;;;;4944467;28;20774;-77
2022/07/13 10:00:33;;;;;;;2.65;0.45;;;27.80;41.90;;;;;;4945575;28;20200;-79
2022/07/13 10:03:03;;;;;;;0.88;0.40;;;27.80;42.00;;;;;;4941568;28;20230;-80
2022/07/13 10:05:31;;;;;;;0.35;0.30;;;27.80;41.70;;;;;;4944506;28;20233;-78
2022/07/13 10:08:00;;;;;;;2.22;0.40;;;27.90;41.70;;;;;;4947581;29;20203;-78
2022/07/13 10:10:30;;;;;;;1.30;0.35;;;28.00;42.00;;;;;;4941921;28;20194;-79
2022/07/13 10:13:05;;;;;;;0.47;0.30;;;28.00;41.70;;;;;;4934451;28;20686;-83
2022/07/13 10:15:33;;;;;;;5.85;0.50;;;28.00;41.20;;;;;;4940421;28;20190;-78
2022/07/13 10:18:03;;;;;;;1.05;0.50;;;28.00;41.60;;;;;;4944087;28;20217;-76
2022/07/13 10:20:34;;;;;;;0.40;0.40;;;28.00;41.80;;;;;;4940126;29;20198;-78
2022/07/13 10:23:02;;;;;;;0.65;0.55;;;28.10;41.90;;;;;;4938352;28;20214;-76
2022/07/13 10:25:44;;;;;;;0.95;0.50;;;28.10;41.50;;;;;;4944766;29;20210;-79
2022/07/13 10:28:13;;;;;;;1.80;0.50;;;28.20;41.20;;;;;;4941534;28;20904;-78
2022/07/13 10:30:42;;;;;;;2.03;0.40;;;28.30;41.10;;;;;;4943327;29;20198;-77
2022/07/13 10:33:21;;;;;;;0.65;0.30;;;28.40;41.60;;;;;;4942526;28;20253;-78
2022/07/13 10:35:50;;;;;;;4.13;0.52;;;28.50;41.40;;;;;;4939613;28;20938;-79
2022/07/13 10:38:22;;;;;;;0.60;0.35;;;28.50;41.20;;;;;;4945572;29;20289;-80
2022/07/13 10:41:18;;;;;;;0.95;0.40;;;28.50;40.80;;;;;;4945980;29;20683;-80
2022/07/13 10:43:54;;;;;;;1.17;0.32;;;28.50;40.60;;;;;;4935803;28;20211;-79
2022/07/13 10:46:48;;;;;;;0.93;0.50;;;28.60;40.60;;;;;;4941889;28;20210;-77
2022/07/13 10:49:41;;;;;;;1.42;0.45;;;28.60;40.50;;;;;;4946270;29;20209;-78
2022/07/13 10:52:52;;;;;;;1.33;0.57;;;28.60;40.80;;;;;;4939946;28;20207;-81
2022/07/13 10:55:47;;;;;;;1.38;0.40;;;28.60;40.70;;;;;;4943960;28;20604;-79
2022/07/13 10:58:45;;;;;;;0.82;0.43;;;28.60;41.00;;;;;;4944684;28;20229;-80
2022/07/13 11:01:35;;;;;;;0.63;0.40;;;28.70;41.10;;;;;;4929796;28;20199;-82
2022/07/13 11:04:08;;;;;;;0.55;0.47;;;28.80;41.40;;;;;;4908898;29;20218;-79
2022/07/13 11:06:38;;;;;;;1.75;0.57;;;28.80;41.40;;;;;;4941567;28;20222;-80
2022/07/13 11:09:18;;;;;;;1.10;0.32;;;28.90;41.70;;;;;;4944459;29;20594;-79
2022/07/13 11:11:51;;;;;;;0.68;0.45;;;28.90;41.50;;;;;;4945105;29;20205;-80
2022/07/13 11:14:49;;;;;;;1.80;0.45;;;28.90;40.90;;;;;;4939242;28;20202;-82
2022/07/13 11:17:24;;;;;;;0.93;0.50;;;28.90;40.80;;;;;;4938045;29;20208;-80
2022/07/13 11:20:01;;;;;;;1.20;0.43;;;29.00;40.80;;;;;;4945727;29;20973;-81
2022/07/13 11:25:28;;;;;;;3.03;0.50;;;29.00;41.10;;;;;;4935988;28;20202;-80
2022/07/13 11:28:14;;;;;;;0.95;0.40;;;29.10;41.20;;;;;;4941161;28;20668;-79
2022/07/13 11:30:50;;;;;;;2.05;0.50;;;29.10;41.20;;;;;;4937520;29;20214;-80
2022/07/13 11:33:27;;;;;;;3.00;0.70;;;29.20;41.20;;;;;;4934411;28;20198;-84
2022/07/13 11:35:57;;;;;;;0.95;0.50;;;29.20;40.40;;;;;;4936808;28;20203;-81
2022/07/13 11:38:26;;;;;;;3.60;0.70;;;29.30;40.40;;;;;;4939931;28;20197;-79
2022/07/13 11:40:55;;;;;;;0.50;0.40;;;29.40;40.70;;;;;;4941605;28;20202;-80
2022/07/13 11:43:23;;;;;;;0.60;0.50;;;29.40;40.40;;;;;;4942571;28;20218;-82
2022/07/13 11:45:53;;;;;;;0.60;0.50;;;29.50;41.00;;;;;;4934865;28;20206;-80
2022/07/13 11:48:24;;;;;;;1.88;0.77;;;29.50;41.30;;;;;;4943905;29;20194;-82
2022/07/13 11:50:53;;;;;;;1.50;0.60;;;29.50;41.20;;;;;;4944046;29;20285;-79
2022/07/13 11:53:27;;;;;;;2.20;0.70;;;29.50;41.20;;;;;;4940204;28;20229;-83
2022/07/13 11:55:58;;;;;;;1.88;0.68;;;29.50;40.60;;;;;;4943808;28;20210;-77
2022/07/13 11:58:31;;;;;;;1.23;0.70;;;29.60;40.80;;;;;;4939778;28;20687;-81
2022/07/13 12:01:02;;;;;;;2.72;1.00;;;29.70;41.00;;;;;;4943255;29;20195;-82
2022/07/13 12:03:33;;;;;;;3.67;2.63;;;29.70;40.90;;;;;;4934175;28;20234;-80
2022/07/13 12:06:06;;;;;;;1.35;0.70;;;29.70;40.80;;;;;;4947052;29;20201;-81
2022/07/13 12:08:36;;;;;;;1.33;0.90;;;29.70;40.10;;;;;;4945355;28;20206;-80
2022/07/13 12:11:07;;;;;;;0.60;0.40;;;29.80;40.00;;;;;;4946342;29;20289;-80
2022/07/13 12:13:36;;;;;;;2.92;0.50;;;29.80;40.10;;;;;;4945795;29;20251;-83
2022/07/13 12:16:09;;;;;;;0.60;0.43;;;29.80;40.00;;;;;;4936464;29;20209;-82
2022/07/13 12:19:08;;;;;;;0.80;0.50;;;29.90;40.30;;;;;;4947008;29;20207;-82
2022/07/13 12:21:40;;;;;;;0.45;0.40;;;30.00;39.80;;;;;;4888706;28;20207;-81
2022/07/13 12:24:09;;;;;;;1.60;0.60;;;30.10;39.70;;;;;;4941326;28;20234;-79
2022/07/13 12:26:38;;;;;;;3.35;1.00;;;30.20;40.10;;;;;;4944532;28;20781;-79
2022/07/13 12:29:06;;;;;;;1.13;0.50;;;30.30;39.80;;;;;;4948171;29;20230;-79
2022/07/13 12:31:36;;;;;;;0.85;0.60;;;30.40;40.20;;;;;;4945974;29;20693;-82
2022/07/13 12:34:06;;;;;;;3.03;0.45;;;30.60;40.20;;;;;;4935216;28;20225;-83
2022/07/13 12:36:55;;;;;;;4.95;0.60;;;30.80;39.70;;;;;;4943529;28;20249;-82
2022/07/13 12:39:35;;;;;;;3.13;0.80;;;30.90;39.00;;;;;;4947009;28;20285;-82
2022/07/13 12:42:07;;;;;;;0.73;0.43;;;31.10;39.30;;;;;;4945664;28;20594;-79
2022/07/13 12:44:37;;;;;;;0.98;0.50;;;31.20;38.80;;;;;;4948584;28;20574;-78
2022/07/13 12:47:06;;;;;;;4.07;0.55;;;31.40;39.20;;;;;;4949217;28;20479;-80
2022/07/13 12:49:37;;;;;;;0.82;0.50;;;31.40;38.90;;;;;;4943123;28;20243;-79
2022/07/13 12:52:07;;;;;;;0.63;0.40;;;31.50;38.90;;;;;;4944490;28;20213;-78
2022/07/13 12:54:45;;;;;;;1.98;0.47;;;31.50;39.00;;;;;;4942295;28;20194;-80
2022/07/13 12:57:15;;;;;;;2.33;0.52;;;31.50;38.80;;;;;;4941477;28;20189;-79
2022/07/13 12:59:58;;;;;;;2.75;0.50;;;31.50;38.80;;;;;;4943820;28;20194;-80
2022/07/13 13:02:29;;;;;;;0.75;0.50;;;31.50;38.50;;;;;;4943386;28;20195;-76
2022/07/13 13:04:58;;;;;;;1.02;0.60;;;31.50;39.00;;;;;;4945828;28;20984;-79
2022/07/13 13:07:26;;;;;;;2.33;0.50;;;31.50;39.10;;;;;;4945826;28;20221;-80
2022/07/13 13:09:55;;;;;;;1.85;0.82;;;31.50;39.00;;;;;;4937850;28;20196;-78
2022/07/13 13:12:23;;;;;;;2.58;1.38;;;31.50;38.80;;;;;;4938798;28;20205;-78
2022/07/13 13:14:52;;;;;;;13.15;7.35;;;31.50;38.60;;;;;;4942983;28;20200;-76
2022/07/13 13:17:23;;;;;;;23.42;13.18;;;31.50;38.40;;;;;;4944708;28;20186;-78